Terminal Aerodrome Forecast
Issued by NWS

Home | Current Version | Previous Version | Text Only | Print | Product List | Glossary On
Versions: 1 2 3 4 5 6 7 8 9 10 11 12 13 14 15 16 17 18 19 20 21 22 23 24 25 26 27 28 29
000
FTAK31 PANC 202332
TAFATK
TAF
PATK 202332Z 2100/2124 19006KT P6SM VCSH BKN040 BKN120
     FM210900 VRB05KT 6SM -RA SCT020 OVC035
     FM212100 36004KT P6SM FEW035 BKN080=

USA.gov is the U.S. government's official web portal to all federal, state and local government web resources and services.